Time;durP1;ratioP1;P1;durP2;ratioP2;P2;SDS_P1;SDS_P2;PMS_P1;PMS_P2;Temp;Humidity;BMP_temperature;BMP_pressure;BME280_temperature;BME280_humidity;BME280_pressure;Samples;Min_cycle;Max_cycle;Signal;HPM_P1;HPM_P2
2022/06/07 00:02:24;;;;;;;14.10;10.60;;;;;;;12.87;100.00;101216.66;5092215;28;20036;-69
2022/06/07 00:04:54;;;;;;;16.38;11.98;;;;;;;12.91;100.00;101212.00;5090741;28;20052;-69
2022/06/07 00:07:25;;;;;;;15.20;11.90;;;;;;;12.95;100.00;101210.84;5089286;28;20056;-69
2022/06/07 00:09:54;;;;;;;19.02;13.02;;;;;;;12.96;100.00;101207.25;5091793;28;20603;-69
2022/06/07 00:12:23;;;;;;;19.77;12.38;;;;;;;12.99;100.00;101212.31;5092199;28;20048;-69
2022/06/07 00:14:51;;;;;;;18.25;13.00;;;;;;;12.94;100.00;101204.72;5092062;28;20562;-69
2022/06/07 00:17:20;;;;;;;19.20;14.40;;;;;;;12.98;100.00;101208.84;5090636;28;20071;-69
2022/06/07 00:19:49;;;;;;;20.20;16.48;;;;;;;13.01;100.00;101205.16;5091987;28;20419;-70
2022/06/07 00:22:17;;;;;;;22.38;15.88;;;;;;;13.00;100.00;101204.28;5091661;28;20068;-71
2022/06/07 00:24:47;;;;;;;20.02;16.70;;;;;;;12.96;100.00;101201.97;5091927;28;20083;-72
2022/06/07 00:27:15;;;;;;;23.45;17.73;;;;;;;12.91;100.00;101198.81;5091770;28;20048;-72
2022/06/07 00:29:45;;;;;;;23.70;16.65;;;;;;;12.88;100.00;101194.56;5091874;28;20044;-72
2022/06/07 00:32:15;;;;;;;22.70;17.00;;;;;;;12.94;100.00;101191.53;5091882;28;20071;-72
2022/06/07 00:34:43;;;;;;;22.65;16.33;;;;;;;12.91;100.00;101193.53;5089983;28;20455;-72
2022/06/07 00:37:11;;;;;;;22.95;16.48;;;;;;;12.85;100.00;101192.16;5090439;28;20058;-72
2022/06/07 00:39:39;;;;;;;20.08;15.55;;;;;;;12.90;100.00;101189.19;5091999;28;20101;-72
2022/06/07 00:42:10;;;;;;;19.77;15.32;;;;;;;12.95;100.00;101187.94;5090017;28;20141;-72
2022/06/07 00:44:41;;;;;;;23.27;16.98;;;;;;;12.88;100.00;101178.75;5091855;28;20047;-72
2022/06/07 00:47:13;;;;;;;24.40;16.38;;;;;;;12.94;100.00;101178.31;5088604;28;20048;-72
2022/06/07 00:49:47;;;;;;;24.02;17.00;;;;;;;12.94;100.00;101178.31;5088455;28;20498;-72
2022/06/07 00:52:16;;;;;;;27.92;17.73;;;;;;;13.03;100.00;101182.09;5091501;28;20036;-72
2022/06/07 00:54:44;;;;;;;24.27;17.35;;;;;;;13.07;100.00;101180.09;5091541;28;20087;-71
2022/06/07 00:57:14;;;;;;;25.65;18.58;;;;;;;13.02;100.00;101181.28;5091363;28;20043;-72
2022/06/07 00:59:42;;;;;;;27.83;19.08;;;;;;;13.04;100.00;101169.78;5086849;28;20321;-72
2022/06/07 01:02:10;;;;;;;29.02;19.45;;;;;;;13.01;100.00;101171.66;5087729;28;20498;-72
2022/06/07 01:04:39;;;;;;;27.55;19.00;;;;;;;13.07;100.00;101166.91;5091358;28;20043;-72
2022/06/07 01:12:39;;;;;;;27.15;19.85;;;;;;;13.09;100.00;101159.69;5091454;28;20046;-73
2022/06/07 01:15:09;;;;;;;29.10;20.63;;;;;;;13.11;100.00;101163.09;5091496;28;20494;-71
2022/06/07 01:17:37;;;;;;;28.52;20.38;;;;;;;13.07;100.00;101165.09;5088272;28;20044;-71
2022/06/07 01:20:07;;;;;;;29.95;21.17;;;;;;;13.09;100.00;101159.69;5087897;28;20109;-71
2022/06/07 01:22:37;;;;;;;29.95;19.88;;;;;;;13.05;100.00;101163.50;5090653;28;20036;-71
2022/06/07 01:25:06;;;;;;;27.63;19.80;;;;;;;13.11;100.00;101163.09;5091767;28;20039;-71
2022/06/07 01:27:34;;;;;;;27.92;19.08;;;;;;;13.11;100.00;101161.28;5091580;28;20044;-71
2022/06/07 01:30:04;;;;;;;32.10;20.20;;;;;;;13.16;100.00;101153.06;5090862;28;20048;-72
2022/06/07 01:32:33;;;;;;;30.45;19.02;;;;;;;13.09;100.00;101150.00;5090926;28;20051;-72
2022/06/07 01:35:01;;;;;;;31.52;19.40;;;;;;;13.17;100.00;101152.06;5090825;28;20071;-71
2022/06/07 01:37:29;;;;;;;28.25;20.27;;;;;;;13.18;100.00;101159.91;5091039;28;20050;-72
2022/06/07 01:42:43;;;;;;;34.80;21.60;;;;;;;13.18;100.00;101141.44;5058345;28;20060;-71
2022/06/07 01:45:11;;;;;;;31.35;20.95;;;;;;;13.25;100.00;101141.84;5085502;28;20068;-70
2022/06/07 01:47:40;;;;;;;29.15;21.08;;;;;;;13.27;100.00;101136.44;5093928;28;20044;-72
2022/06/07 01:50:09;;;;;;;30.48;21.05;;;;;;;13.30;100.00;101139.69;5094871;28;20483;-71
2022/06/07 01:52:38;;;;;;;32.40;20.00;;;;;;;13.38;100.00;101133.06;5093989;28;20491;-71
2022/06/07 01:55:09;;;;;;;30.45;20.58;;;;;;;13.33;100.00;101131.56;5090355;28;20044;-71
2022/06/07 01:57:37;;;;;;;32.10;22.35;;;;;;;13.31;100.00;101124.69;5093315;28;20047;-71
2022/06/07 02:00:07;;;;;;;34.33;23.70;;;;;;;13.20;100.00;101125.47;5094774;28;20459;-71
2022/06/07 02:02:36;;;;;;;34.47;22.88;;;;;;;13.22;100.00;101114.78;5094472;28;20044;-71
2022/06/07 02:05:04;;;;;;;33.70;23.95;;;;;;;13.21;100.00;101116.59;5094787;28;20117;-71
2022/06/07 02:07:32;;;;;;;37.55;24.65;;;;;;;13.23;100.00;101113.84;5094502;28;20055;-71
2022/06/07 02:10:00;;;;;;;33.38;23.65;;;;;;;13.29;100.00;101118.66;5092437;28;20050;-71
2022/06/07 02:12:30;;;;;;;36.88;24.80;;;;;;;13.30;100.00;101115.91;5091384;28;20079;-71
2022/06/07 02:15:00;;;;;;;37.33;23.27;;;;;;;13.35;100.00;101111.19;5094123;28;20051;-71
2022/06/07 02:17:28;;;;;;;33.72;24.17;;;;;;;13.34;100.00;101109.44;5094653;28;20048;-71
2022/06/07 02:19:56;;;;;;;33.63;24.60;;;;;;;13.32;100.00;101111.38;5094774;28;20075;-71
2022/06/07 02:22:24;;;;;;;32.22;23.10;;;;;;;13.34;100.00;101112.09;5094220;28;20135;-69
2022/06/07 02:24:52;;;;;;;30.85;23.75;;;;;;;13.38;100.00;101109.28;5094231;28;20079;-71
2022/06/07 02:27:22;;;;;;;32.20;23.70;;;;;;;13.38;100.00;101111.94;5094064;28;20050;-71
2022/06/07 02:29:54;;;;;;;34.85;24.10;;;;;;;13.37;100.00;101102.31;5094172;28;20101;-72
2022/06/07 02:32:27;;;;;;;33.42;23.25;;;;;;;13.34;100.00;101109.44;5094192;28;20494;-72
2022/06/07 02:34:58;;;;;;;32.97;22.10;;;;;;;13.35;100.00;101103.25;5094059;28;20044;-71
2022/06/07 02:37:28;;;;;;;31.02;22.20;;;;;;;13.40;100.00;101107.38;5094080;28;20056;-71
2022/06/07 02:39:57;;;;;;;33.72;23.67;;;;;;;13.40;100.00;101107.38;5093769;28;20048;-71
2022/06/07 02:42:27;;;;;;;31.92;22.17;;;;;;;13.39;100.00;101103.03;5093877;28;20056;-71
2022/06/07 02:44:57;;;;;;;31.15;23.35;;;;;;;13.39;100.00;101108.31;5093940;28;20044;-71
2022/06/07 02:47:26;;;;;;;30.17;21.63;;;;;;;13.35;100.00;101103.25;5090736;28;20044;-72
2022/06/07 02:49:54;;;;;;;27.67;21.48;;;;;;;13.36;100.00;101106.72;5090937;28;20043;-72
2022/06/07 02:52:23;;;;;;;30.95;22.52;;;;;;;13.24;100.00;101095.25;5093169;28;20044;-71
2022/06/07 02:54:51;;;;;;;31.85;22.77;;;;;;;13.29;100.00;101098.41;5093781;28;20071;-72
2022/06/07 02:57:19;;;;;;;32.30;23.40;;;;;;;13.26;100.00;101088.03;5093129;28;20435;-72
2022/06/07 02:59:47;;;;;;;32.05;22.80;;;;;;;13.26;100.00;101097.78;5093407;28;20097;-71
2022/06/07 03:02:17;;;;;;;30.40;22.08;;;;;;;13.24;100.00;101097.88;5093341;28;20051;-71
2022/06/07 03:04:45;;;;;;;35.40;22.15;;;;;;;13.22;100.00;101098.94;5093544;28;20044;-70
2022/06/07 03:07:13;;;;;;;32.13;22.02;;;;;;;13.28;100.00;101102.00;5093221;28;20094;-71
2022/06/07 03:09:41;;;;;;;29.95;21.33;;;;;;;13.31;100.00;101099.13;5093404;28;20063;-71
2022/06/07 03:12:09;;;;;;;32.50;22.98;;;;;;;13.27;100.00;101104.75;5093239;28;20056;-72
2022/06/07 03:14:38;;;;;;;27.60;21.85;;;;;;;13.21;100.00;101097.25;5093449;28;20127;-71
2022/06/07 03:17:06;;;;;;;32.38;22.20;;;;;;;13.15;100.00;101098.53;5093126;28;20082;-72
2022/06/07 03:19:35;;;;;;;33.58;23.00;;;;;;;13.16;100.00;101103.72;5093075;28;20048;-72
2022/06/07 03:22:05;;;;;;;33.08;23.70;;;;;;;13.07;100.00;101099.09;5089916;28;20048;-71
2022/06/07 03:24:33;;;;;;;35.45;23.80;;;;;;;13.12;100.00;101096.13;5090943;28;20048;-71
2022/06/07 03:27:02;;;;;;;31.58;23.58;;;;;;;13.12;100.00;101094.31;5093165;28;20071;-72
2022/06/07 03:29:30;;;;;;;32.28;23.02;;;;;;;13.16;100.00;101095.78;5093149;28;20048;-72
2022/06/07 03:31:58;;;;;;;28.77;22.73;;;;;;;13.17;100.00;101105.41;5089345;28;20128;-71
2022/06/07 03:34:27;;;;;;;33.10;22.55;;;;;;;13.11;100.00;101097.09;5089989;28;20048;-71
2022/06/07 03:36:56;;;;;;;32.70;23.58;;;;;;;13.06;100.00;101096.56;5092825;28;20048;-71
2022/06/07 03:39:24;;;;;;;32.15;23.67;;;;;;;13.02;100.00;101107.34;5092914;28;20067;-71
2022/06/07 03:41:53;;;;;;;32.63;23.90;;;;;;;13.10;100.00;101100.66;5092741;28;20048;-71
2022/06/07 03:44:21;;;;;;;32.35;23.52;;;;;;;13.09;100.00;101105.13;5092682;28;20309;-71
2022/06/07 03:46:49;;;;;;;32.47;24.08;;;;;;;13.09;100.00;101097.19;5092507;28;20044;-72
2022/06/07 03:49:18;;;;;;;33.85;24.85;;;;;;;13.05;100.00;101103.66;5089211;28;20052;-71
2022/06/07 03:51:47;;;;;;;31.75;24.13;;;;;;;13.12;100.00;101109.34;5090497;28;20431;-71
2022/06/07 03:54:17;;;;;;;33.75;25.88;;;;;;;13.13;100.00;101109.22;5090222;28;20549;-71
2022/06/07 03:56:45;;;;;;;36.92;25.92;;;;;;;13.13;100.00;101103.06;5088808;28;20075;-71
2022/06/07 03:59:13;;;;;;;33.42;24.10;;;;;;;13.11;100.00;101108.47;5091631;28;20051;-71
2022/06/07 04:01:41;;;;;;;33.40;24.65;;;;;;;13.08;100.00;101113.16;5092829;28;20076;-71
2022/06/07 04:04:10;;;;;;;30.35;23.35;;;;;;;13.14;100.00;101121.47;5092019;28;20048;-71
2022/06/07 04:08:10;;;;;;;34.78;24.60;;;;;;;13.21;100.00;101110.47;5090778;28;20177;-71
2022/06/07 04:09:38;;;;;;;32.42;24.23;;;;;;;13.15;100.00;101109.09;5087724;28;20079;-71
2022/06/07 04:12:08;;;;;;;32.47;23.00;;;;;;;13.19;100.00;101113.22;5088275;28;20067;-71
2022/06/07 04:14:37;;;;;;;33.40;24.42;;;;;;;13.18;100.00;101111.53;5092292;28;20040;-69
2022/06/07 04:17:06;;;;;;;31.55;22.60;;;;;;;13.18;100.00;101111.53;5089838;28;20056;-70
2022/06/07 04:19:42;;;;;;;32.58;23.38;;;;;;;13.13;100.00;101114.50;5088789;28;20121;-70
2022/06/07 04:22:11;;;;;;;35.30;24.50;;;;;;;13.15;100.00;101111.75;5090052;28;20052;-70
2022/06/07 04:24:40;;;;;;;29.95;23.27;;;;;;;13.20;100.00;101114.91;5091882;28;20051;-69
2022/06/07 04:27:09;;;;;;;32.58;23.58;;;;;;;13.22;100.00;101112.97;5091910;28;20514;-69
2022/06/07 04:29:37;;;;;;;27.00;22.95;;;;;;;13.24;100.00;101111.09;5092228;28;20085;-70
2022/06/07 04:32:11;;;;;;;27.52;22.13;;;;;;;13.29;100.00;101111.59;5089240;28;20043;-69
2022/06/07 04:34:39;;;;;;;32.08;22.73;;;;;;;13.28;100.00;101111.69;5088583;28;20053;-69
2022/06/07 04:37:07;;;;;;;32.10;22.40;;;;;;;13.31;100.00;101114.13;5091348;28;20044;-69
2022/06/07 04:39:36;;;;;;;30.35;22.17;;;;;;;13.24;100.00;101119.00;5091946;28;20044;-69
2022/06/07 04:42:06;;;;;;;30.67;22.20;;;;;;;13.30;100.00;101118.56;5091805;28;20117;-69
2022/06/07 04:44:34;;;;;;;28.50;22.05;;;;;;;13.26;100.00;101122.38;5091931;28;20036;-69
2022/06/07 04:47:02;;;;;;;32.45;23.10;;;;;;;13.32;100.00;101119.31;5090621;28;20094;-71
2022/06/07 04:49:30;;;;;;;29.02;21.38;;;;;;;13.31;100.00;101124.69;5091755;28;20511;-71
2022/06/07 04:51:58;;;;;;;33.15;22.17;;;;;;;13.34;100.00;101132.41;5091613;28;20048;-71
2022/06/07 04:54:26;;;;;;;29.00;21.90;;;;;;;13.34;100.00;101127.13;5091482;28;20040;-71
2022/06/07 04:56:55;;;;;;;31.35;24.60;;;;;;;13.36;100.00;101130.50;5091458;28;20048;-70
2022/06/07 04:59:25;;;;;;;31.10;23.30;;;;;;;13.41;100.00;101130.19;5091528;28;20498;-69
2022/06/07 05:01:53;;;;;;;31.42;23.40;;;;;;;13.43;100.00;101130.91;5091606;28;20040;-69
2022/06/07 05:04:22;;;;;;;29.85;22.65;;;;;;;13.29;100.00;101135.38;5091014;28;20044;-71
2022/06/07 05:06:51;;;;;;;28.55;23.30;;;;;;;13.44;100.00;101132.59;5091077;28;20153;-69
2022/06/07 05:09:22;;;;;;;31.67;23.13;;;;;;;13.43;100.00;101131.78;5091257;28;20044;-71
2022/06/07 05:11:52;;;;;;;31.00;23.30;;;;;;;13.55;100.00;101137.94;5091406;28;20072;-71
2022/06/07 05:14:21;;;;;;;29.95;22.80;;;;;;;13.40;100.00;101139.06;5091171;28;20156;-72
2022/06/07 05:16:51;;;;;;;28.25;21.55;;;;;;;13.37;100.00;101141.94;5091157;28;20123;-71
2022/06/07 05:19:20;;;;;;;26.40;21.67;;;;;;;13.45;100.00;101144.88;5091391;28;20036;-71
2022/06/07 05:21:48;;;;;;;28.15;21.70;;;;;;;13.38;100.00;101155.03;5090728;28;20048;-71
2022/06/07 05:24:16;;;;;;;30.65;21.02;;;;;;;13.33;100.00;101149.19;5091063;28;20080;-71
2022/06/07 05:26:48;;;;;;;28.73;23.02;;;;;;;13.30;100.00;101146.78;5091065;28;20048;-71
2022/06/07 05:29:21;;;;;;;32.15;22.10;;;;;;;13.40;100.00;101142.53;5091021;28;20051;-72
2022/06/07 05:31:50;;;;;;;25.25;20.02;;;;;;;13.41;100.00;101138.94;5091184;28;20048;-69
2022/06/07 05:34:18;;;;;;;28.35;20.92;;;;;;;13.47;100.00;101150.88;5090811;28;20040;-69
2022/06/07 05:36:47;;;;;;;29.20;21.13;;;;;;;13.62;100.00;101148.91;5091151;28;20044;-69
2022/06/07 05:39:21;;;;;;;26.92;20.42;;;;;;;13.68;100.00;101151.13;5089658;28;20059;-69
2022/06/07 05:41:49;;;;;;;25.60;19.48;;;;;;;13.74;100.00;101150.63;5091034;28;20052;-69
2022/06/07 05:44:17;;;;;;;24.48;19.55;;;;;;;13.81;100.00;101151.03;5090812;28;20036;-74
2022/06/07 05:46:46;;;;;;;27.00;20.08;;;;;;;13.74;100.00;101149.81;5091014;28;20051;-74
2022/06/07 05:49:17;;;;;;;27.35;19.15;;;;;;;13.76;100.00;101154.03;5090945;28;20067;-74
2022/06/07 05:51:45;;;;;;;25.65;20.02;;;;;;;13.80;100.00;101150.19;5090829;28;20445;-74
2022/06/07 05:54:15;;;;;;;23.08;18.52;;;;;;;13.88;100.00;101152.28;5089542;28;20429;-70
2022/06/07 05:56:43;;;;;;;24.65;18.70;;;;;;;13.85;100.00;101161.28;5090778;28;20486;-69
2022/06/07 05:59:11;;;;;;;25.55;19.70;;;;;;;13.83;100.00;101157.91;5090788;28;20072;-70
2022/06/07 06:01:40;;;;;;;26.15;19.95;;;;;;;13.80;100.00;101152.84;5090955;28;20048;-70
2022/06/07 06:04:08;;;;;;;26.00;19.67;;;;;;;13.71;100.00;101150.03;5090264;28;20043;-70
2022/06/07 06:06:38;;;;;;;24.00;19.42;;;;;;;13.80;100.00;101155.50;5090838;28;20040;-70
2022/06/07 06:11:54;;;;;;;24.20;18.05;;;;;;;13.95;100.00;101163.25;5090626;28;20052;-70
2022/06/07 06:14:23;;;;;;;27.40;19.33;;;;;;;14.00;100.00;101167.25;5089514;28;20051;-71
2022/06/07 06:16:52;;;;;;;26.88;18.65;;;;;;;14.07;100.00;101156.19;5090443;28;20064;-71
2022/06/07 06:19:21;;;;;;;29.20;18.67;;;;;;;14.07;100.00;101164.13;5089233;28;20044;-71
2022/06/07 06:21:50;;;;;;;23.10;17.52;;;;;;;14.09;100.00;101155.13;5090546;28;20090;-70
2022/06/07 06:24:23;;;;;;;25.08;17.88;;;;;;;14.17;100.00;101157.19;5090351;28;20395;-70
2022/06/07 06:26:54;;;;;;;;;;;;;;;14.16;100.00;101164.25;5090950;28;20060;-71
2022/06/07 06:29:23;;;;;;;23.30;17.13;;;;;;;14.27;100.00;101167.91;5090359;28;19924;-75
2022/06/07 06:31:52;;;;;;;24.35;17.55;;;;;;;14.22;100.00;101164.78;5090328;28;20044;-75
2022/06/07 06:34:20;;;;;;;24.75;18.10;;;;;;;14.30;100.00;101157.97;5092982;28;20126;-74
2022/06/07 06:36:50;;;;;;;23.80;17.27;;;;;;;14.33;100.00;101157.72;5094037;28;20044;-75
2022/06/07 06:39:19;;;;;;;23.95;17.70;;;;;;;14.29;100.00;101161.56;5093682;28;20097;-75
2022/06/07 06:41:48;;;;;;;22.80;18.48;;;;;;;14.18;100.00;101165.00;5093812;28;20055;-74
2022/06/07 06:44:16;;;;;;;24.73;18.58;;;;;;;14.38;100.00;101160.00;5093610;28;20506;-71
2022/06/07 06:46:47;;;;;;;24.23;17.77;;;;;;;14.38;100.00;101160.00;5093787;28;20044;-70
2022/06/07 06:49:18;;;;;;;24.33;18.08;;;;;;;14.44;100.00;101158.69;5093597;28;20075;-71
2022/06/07 06:51:47;;;;;;;24.50;17.23;;;;;;;14.62;100.00;101157.28;5093777;28;20044;-71
2022/06/07 06:54:17;;;;;;;26.45;18.65;;;;;;;14.65;100.00;101154.41;5093701;28;20048;-70
2022/06/07 06:56:46;;;;;;;26.77;18.05;;;;;;;14.61;100.00;101160.03;5093655;28;20046;-75
2022/06/07 06:59:14;;;;;;;25.08;17.73;;;;;;;14.79;100.00;101157.81;5093663;28;20123;-75
2022/06/07 07:01:43;;;;;;;26.67;18.58;;;;;;;14.90;100.00;101163.09;5093597;28;20055;-75
2022/06/07 07:04:15;;;;;;;23.17;17.50;;;;;;;14.98;100.00;101163.34;5093507;28;20436;-75
2022/06/07 07:06:43;;;;;;;23.52;17.85;;;;;;;15.14;100.00;101162.97;5092978;28;20040;-70
2022/06/07 07:09:11;;;;;;;24.25;17.90;;;;;;;15.25;100.00;101169.22;5093189;28;20042;-70
2022/06/07 07:11:44;;;;;;;23.80;17.85;;;;;;;15.22;100.00;101165.00;5093324;28;20571;-70
2022/06/07 07:14:12;;;;;;;26.52;18.52;;;;;;;15.38;100.00;101169.94;5092943;28;20058;-70
2022/06/07 07:16:45;;;;;;;23.40;18.63;;;;;;;15.42;100.00;101171.38;5092948;28;20040;-70
2022/06/07 07:19:15;;;;;;;23.40;17.40;;;;;;;15.48;100.00;101170.88;5092848;28;20414;-70
2022/06/07 07:21:46;;;;;;;25.25;18.50;;;;;;;15.63;100.00;101166.13;5089950;28;20099;-70
2022/06/07 07:24:17;;;;;;;25.13;18.88;;;;;;;15.67;100.00;101170.22;5090058;28;20048;-71
2022/06/07 07:26:47;;;;;;;25.55;18.55;;;;;;;15.73;100.00;101166.22;5092830;28;20047;-71
2022/06/07 07:29:18;;;;;;;23.73;18.55;;;;;;;15.68;100.00;101166.59;5092790;28;20052;-71
2022/06/07 07:31:47;;;;;;;23.02;18.42;;;;;;;15.78;100.00;101160.53;5092737;28;20051;-69
2022/06/07 07:34:17;;;;;;;25.35;19.67;;;;;;;15.77;100.00;101172.94;5092812;28;20453;-69
2022/06/07 07:36:48;;;;;;;24.90;18.38;;;;;;;15.86;100.00;101172.22;5092633;28;20125;-70
2022/06/07 07:39:22;;;;;;;21.70;17.88;;;;;;;15.96;100.00;101168.81;5092724;28;20371;-69
2022/06/07 07:41:53;;;;;;;21.75;17.40;;;;;;;16.05;100.00;101174.19;5092985;28;20048;-70
2022/06/07 07:44:23;;;;;;;23.45;17.42;;;;;;;16.12;100.00;101179.00;5091070;28;20059;-70
2022/06/07 07:46:53;;;;;;;27.73;19.05;;;;;;;16.15;100.00;101170.78;5092533;28;20048;-71
2022/06/07 07:49:22;;;;;;;22.85;17.52;;;;;;;16.25;100.00;101174.31;5092616;28;20113;-69
2022/06/07 07:51:53;;;;;;;20.98;17.10;;;;;;;16.34;100.00;101175.38;5092819;28;20123;-70
2022/06/07 07:54:23;;;;;;;22.67;16.30;;;;;;;16.14;100.00;101179.69;5092705;28;20078;-70
2022/06/07 07:56:53;;;;;;;20.20;15.65;;;;;;;16.04;100.00;101176.97;5092461;28;20043;-70
2022/06/07 07:59:22;;;;;;;26.00;16.75;;;;;;;16.15;100.00;101178.75;5092691;28;20149;-70
2022/06/07 08:01:51;;;;;;;21.20;16.77;;;;;;;16.36;100.00;101176.06;5092314;28;20402;-69
2022/06/07 08:04:19;;;;;;;21.77;16.73;;;;;;;16.50;100.00;101186.38;5091010;28;20101;-70
2022/06/07 08:06:48;;;;;;;22.48;16.63;;;;;;;16.53;100.00;101179.97;5091952;28;20351;-70
2022/06/07 08:09:16;;;;;;;21.00;16.00;;;;;;;16.78;100.00;101185.84;5090926;28;20051;-70
2022/06/07 08:11:45;;;;;;;18.77;14.40;;;;;;;16.91;100.00;101178.53;5092238;28;20051;-69
2022/06/07 08:14:18;;;;;;;20.60;15.57;;;;;;;17.03;100.00;101174.78;5092036;28;20073;-69
2022/06/07 08:16:46;;;;;;;;;;;;;;;17.27;100.00;101170.94;5092570;28;20127;-69
2022/06/07 08:19:15;;;;;;;18.38;14.98;;;;;;;17.55;100.00;101179.97;5091943;28;19958;-69
2022/06/07 08:21:43;;;;;;;20.60;15.05;;;;;;;17.66;99.28;101173.69;5092136;28;20544;-69
2022/06/07 08:24:11;;;;;;;17.63;14.48;;;;;;;17.94;99.07;101178.34;5090802;28;20040;-69
2022/06/07 08:26:39;;;;;;;19.17;14.52;;;;;;;18.03;96.69;101188.16;5092095;28;20514;-69
2022/06/07 08:29:08;;;;;;;17.80;14.02;;;;;;;18.00;94.98;101173.31;5091880;28;20075;-69
2022/06/07 08:31:37;;;;;;;19.23;14.35;;;;;;;18.06;96.38;101177.22;5081669;28;20134;-69
2022/06/07 08:39:38;;;;;;;17.17;13.90;;;;;;;17.92;93.30;101173.19;5069033;28;20036;-74
2022/06/07 08:42:17;;;;;;;16.15;12.98;;;;;;;17.96;93.07;101185.22;5076993;28;20437;-69
2022/06/07 08:44:51;;;;;;;16.63;12.80;;;;;;;18.17;95.00;101182.38;5076836;28;20048;-70
2022/06/07 08:47:27;;;;;;;18.38;13.70;;;;;;;18.25;92.61;101181.69;5073646;28;20043;-69
2022/06/07 08:49:58;;;;;;;20.02;13.85;;;;;;;18.17;93.95;101173.56;5080629;28;20502;-69
2022/06/07 08:52:30;;;;;;;20.17;15.38;;;;;;;18.14;95.24;101185.34;5076568;28;20048;-69
2022/06/07 08:55:01;;;;;;;24.42;15.73;;;;;;;17.98;93.13;101179.75;5076728;28;20067;-68
2022/06/07 08:57:34;;;;;;;18.40;13.63;;;;;;;17.83;93.67;101185.47;5078680;28;20047;-72
2022/06/07 09:00:14;;;;;;;18.08;13.52;;;;;;;17.88;91.78;101190.38;5085432;28;20058;-71
2022/06/07 09:03:05;;;;;;;19.88;14.95;;;;;;;17.69;93.06;101188.53;5062506;28;20040;-70
2022/06/07 09:05:33;;;;;;;18.75;14.35;;;;;;;17.95;94.71;101191.50;5068605;28;20048;-69
2022/06/07 09:08:02;;;;;;;20.25;17.55;;;;;;;17.90;95.13;101189.25;5075632;28;20060;-70
2022/06/07 09:13:24;;;;;;;20.73;17.05;;;;;;;18.11;95.72;101190.13;5078526;28;20131;-69
2022/06/07 09:15:54;;;;;;;23.08;17.70;;;;;;;18.21;94.06;101190.94;5080223;28;20047;-69
2022/06/07 09:18:28;;;;;;;20.90;17.20;;;;;;;18.34;93.13;101177.34;5076513;28;20487;-69
2022/06/07 09:21:01;;;;;;;22.95;16.65;;;;;;;18.42;93.20;101180.13;5076795;28;20049;-74
2022/06/07 09:23:32;;;;;;;21.55;16.33;;;;;;;18.50;91.51;101184.72;5077494;28;20040;-74
2022/06/07 09:26:15;;;;;;;22.25;17.88;;;;;;;18.39;91.03;101180.41;5074593;28;20052;-74
2022/06/07 09:28:45;;;;;;;;;;;;;;;18.28;91.65;101184.06;5062114;28;21170;-74
2022/06/07 09:31:16;;;;;;;20.17;16.63;;;;;;;18.27;91.67;101187.72;5075902;28;19943;-76
2022/06/07 09:33:54;;;;;;;22.20;16.20;;;;;;;18.22;90.93;101189.97;5064812;28;20040;-74
2022/06/07 09:36:29;;;;;;;22.67;17.52;;;;;;;18.12;92.05;101183.81;5074502;28;20424;-74
2022/06/07 09:39:01;;;;;;;20.60;17.20;;;;;;;18.11;92.00;101187.47;5082249;28;20380;-74
2022/06/07 09:41:38;;;;;;;24.33;16.48;;;;;;;18.16;94.52;101187.84;5065917;28;20036;-69
2022/06/07 09:44:15;;;;;;;23.13;17.80;;;;;;;18.27;92.02;101186.88;5080555;28;20051;-69
2022/06/07 09:46:46;;;;;;;21.98;17.25;;;;;;;18.24;92.50;101195.97;5075313;28;20555;-69
2022/06/07 09:49:32;;;;;;;19.10;16.20;;;;;;;18.37;92.82;101193.88;5079269;28;20416;-70
2022/06/07 09:52:21;;;;;;;21.85;16.95;;;;;;;18.33;91.07;101194.31;5074527;28;20052;-70
2022/06/07 09:54:51;;;;;;;20.08;15.93;;;;;;;18.37;91.60;101195.69;5076581;28;20478;-74
2022/06/07 09:57:32;;;;;;;20.27;16.50;;;;;;;18.35;92.08;101200.31;5077951;28;20044;-74
2022/06/07 10:00:22;;;;;;;20.80;16.30;;;;;;;18.33;92.71;101196.97;5069148;28;20495;-74
2022/06/07 10:03:25;;;;;;;19.73;16.10;;;;;;;18.24;92.02;101193.31;5076869;28;20055;-74
2022/06/07 10:06:11;;;;;;;22.38;15.38;;;;;;;18.21;93.09;101201.59;5081974;28;20107;-74
2022/06/07 10:09:07;;;;;;;19.35;15.93;;;;;;;18.19;90.74;101196.41;5081281;28;20047;-74
2022/06/07 10:11:41;;;;;;;16.98;14.30;;;;;;;18.03;92.52;101199.63;5081632;28;20051;-70
2022/06/07 10:14:27;;;;;;;18.08;14.80;;;;;;;18.20;93.39;101194.56;5077826;28;20044;-74
2022/06/07 10:17:06;;;;;;;19.55;14.80;;;;;;;18.20;94.54;101192.78;5080269;28;20044;-74
2022/06/07 10:19:44;;;;;;;18.60;15.45;;;;;;;18.10;91.61;101189.28;5084278;28;20051;-74
2022/06/07 10:22:41;;;;;;;16.15;14.00;;;;;;;18.32;92.38;101182.78;5070139;28;20047;-75
2022/06/07 10:25:15;;;;;;;18.00;13.98;;;;;;;18.59;90.91;101184.69;5074138;28;20040;-74
2022/06/07 10:27:55;;;;;;;17.60;15.23;;;;;;;18.75;90.02;101181.44;5080823;28;20106;-74
2022/06/07 10:30:30;;;;;;;19.40;16.02;;;;;;;18.81;91.24;101177.34;5070137;28;20139;-74
2022/06/07 10:33:25;;;;;;;21.02;15.52;;;;;;;18.96;89.22;101172.41;5078521;28;20052;-69
2022/06/07 10:36:00;;;;;;;20.30;14.80;;;;;;;19.15;91.09;101168.81;5078409;28;20051;-70
2022/06/07 10:38:46;;;;;;;18.48;13.25;;;;;;;19.37;90.11;101175.59;5076991;28;20032;-75
2022/06/07 10:41:26;;;;;;;16.33;13.98;;;;;;;19.32;86.17;101177.84;5084938;28;20450;-75
2022/06/07 10:44:03;;;;;;;17.00;13.15;;;;;;;19.27;86.44;101182.78;5077804;28;20438;-75
2022/06/07 10:46:39;;;;;;;16.92;13.90;;;;;;;19.15;88.31;101175.97;5076807;28;20101;-75
2022/06/07 10:49:24;;;;;;;18.30;14.18;;;;;;;19.21;88.45;101178.91;5080547;28;20157;-75
2022/06/07 10:54:54;;;;;;;17.80;14.00;;;;;;;18.99;88.70;101174.81;5083499;28;20044;-75
2022/06/07 10:57:32;;;;;;;21.45;14.90;;;;;;;19.19;88.22;101175.53;5093520;28;20454;-75
2022/06/07 11:00:12;;;;;;;19.10;15.48;;;;;;;19.11;88.82;101178.09;5093731;28;20447;-75
2022/06/07 11:02:51;;;;;;;16.48;13.80;;;;;;;19.21;90.11;101180.72;5093678;28;20069;-74
2022/06/07 11:11:09;;;;;;;15.95;14.25;;;;;;;19.64;86.41;101179.19;5093472;28;20062;-74
2022/06/07 11:13:46;;;;;;;18.95;15.02;;;;;;;19.63;86.87;101174.84;5093273;28;20050;-74
2022/06/07 11:16:21;;;;;;;18.98;15.65;;;;;;;19.65;87.66;101175.53;5091765;28;20047;-75
2022/06/07 11:18:49;;;;;;;17.38;14.27;;;;;;;19.74;87.66;101174.63;5092347;28;20047;-74
2022/06/07 11:21:31;;;;;;;16.38;13.00;;;;;;;19.82;85.65;101178.41;5092758;28;20044;-75
2022/06/07 11:24:07;;;;;;;13.63;12.10;;;;;;;19.88;83.11;101175.13;5093101;28;20047;-74
2022/06/07 11:27:05;;;;;;;14.45;12.55;;;;;;;20.07;82.27;101176.78;5093192;28;20365;-74
2022/06/07 11:29:34;;;;;;;17.30;13.43;;;;;;;20.00;82.16;101165.88;5092901;28;20057;-74
2022/06/07 11:32:03;;;;;;;17.42;14.73;;;;;;;20.26;81.99;101167.75;5091479;28;20098;-74
2022/06/07 11:34:34;;;;;;;18.33;15.23;;;;;;;20.39;80.43;101167.34;5092983;28;20044;-74
2022/06/07 11:37:23;;;;;;;17.63;15.73;;;;;;;20.41;80.21;101162.66;5092749;28;20402;-74
2022/06/07 11:39:54;;;;;;;17.70;14.95;;;;;;;20.76;79.14;101166.25;5092879;28;20058;-74
2022/06/07 11:42:31;;;;;;;16.75;14.93;;;;;;;20.98;80.30;101162.16;5092677;28;20040;-74
2022/06/07 11:45:22;;;;;;;16.45;14.68;;;;;;;21.45;78.74;101160.84;5092676;28;20529;-74
2022/06/07 11:48:18;;;;;;;17.33;14.68;;;;;;;21.92;75.36;101162.94;5092436;28;20055;-74
2022/06/07 11:50:56;;;;;;;18.00;15.45;;;;;;;21.72;74.01;101165.09;5092531;28;20044;-74
2022/06/07 11:53:28;;;;;;;16.95;15.00;;;;;;;22.09;73.41;101162.94;5092377;28;20456;-74